sensor_id;sensor_type;location;lat;lon;timestamp;P1;durP1;ratioP1;P2;durP2;ratioP2
37655;SDS011;23498;50.958;3.124;2023-05-14T00:02:15;46.70;;;26.63;;
37655;SDS011;23498;50.958;3.124;2023-05-14T00:04:41;48.35;;;26.73;;
37655;SDS011;23498;50.958;3.124;2023-05-14T00:07:07;55.00;;;27.60;;
37655;SDS011;23498;50.958;3.124;2023-05-14T00:09:33;55.97;;;28.05;;
37655;SDS011;23498;50.958;3.124;2023-05-14T00:11:59;55.67;;;29.20;;
37655;SDS011;23498;50.958;3.124;2023-05-14T00:14:25;56.45;;;28.58;;
37655;SDS011;23498;50.958;3.124;2023-05-14T00:16:51;56.47;;;29.55;;
37655;SDS011;23498;50.958;3.124;2023-05-14T00:19:17;53.97;;;28.30;;
37655;SDS011;23498;50.958;3.124;2023-05-14T00:21:43;50.85;;;28.35;;
37655;SDS011;23498;50.958;3.124;2023-05-14T00:24:10;55.53;;;29.90;;
37655;SDS011;23498;50.958;3.124;2023-05-14T00:26:36;58.28;;;29.77;;
37655;SDS011;23498;50.958;3.124;2023-05-14T00:29:02;54.60;;;29.98;;
37655;SDS011;23498;50.958;3.124;2023-05-14T00:31:28;58.53;;;31.58;;
37655;SDS011;23498;50.958;3.124;2023-05-14T00:33:54;56.92;;;30.15;;
37655;SDS011;23498;50.958;3.124;2023-05-14T00:36:20;57.50;;;30.42;;
37655;SDS011;23498;50.958;3.124;2023-05-14T00:38:46;58.25;;;31.13;;
37655;SDS011;23498;50.958;3.124;2023-05-14T00:41:12;57.35;;;31.02;;
37655;SDS011;23498;50.958;3.124;2023-05-14T00:43:38;58.47;;;29.27;;
37655;SDS011;23498;50.958;3.124;2023-05-14T00:46:04;57.55;;;29.42;;
37655;SDS011;23498;50.958;3.124;2023-05-14T00:48:30;48.45;;;28.60;;
37655;SDS011;23498;50.958;3.124;2023-05-14T00:50:56;52.35;;;27.55;;
37655;SDS011;23498;50.958;3.124;2023-05-14T00:53:22;50.00;;;26.52;;
37655;SDS011;23498;50.958;3.124;2023-05-14T00:55:48;45.92;;;27.55;;
37655;SDS011;23498;50.958;3.124;2023-05-14T00:58:15;47.85;;;26.73;;
37655;SDS011;23498;50.958;3.124;2023-05-14T01:00:42;57.90;;;28.50;;
37655;SDS011;23498;50.958;3.124;2023-05-14T01:03:08;50.55;;;26.45;;
37655;SDS011;23498;50.958;3.124;2023-05-14T01:08:39;51.45;;;27.80;;
37655;SDS011;23498;50.958;3.124;2023-05-14T01:11:10;52.95;;;28.27;;
37655;SDS011;23498;50.958;3.124;2023-05-14T01:13:41;57.08;;;27.55;;
37655;SDS011;23498;50.958;3.124;2023-05-14T01:16:09;55.65;;;27.55;;
37655;SDS011;23498;50.958;3.124;2023-05-14T01:18:36;48.65;;;26.40;;
37655;SDS011;23498;50.958;3.124;2023-05-14T01:21:03;54.25;;;27.25;;
37655;SDS011;23498;50.958;3.124;2023-05-14T01:23:30;50.80;;;27.05;;
37655;SDS011;23498;50.958;3.124;2023-05-14T01:25:56;52.90;;;26.08;;
37655;SDS011;23498;50.958;3.124;2023-05-14T01:28:24;58.30;;;28.30;;
37655;SDS011;23498;50.958;3.124;2023-05-14T01:30:59;57.95;;;28.15;;
37655;SDS011;23498;50.958;3.124;2023-05-14T01:33:28;52.15;;;28.15;;
37655;SDS011;23498;50.958;3.124;2023-05-14T01:35:54;56.63;;;30.58;;
37655;SDS011;23498;50.958;3.124;2023-05-14T01:38:20;57.00;;;31.73;;
37655;SDS011;23498;50.958;3.124;2023-05-14T01:40:47;55.67;;;29.92;;
37655;SDS011;23498;50.958;3.124;2023-05-14T01:43:14;57.10;;;30.67;;
37655;SDS011;23498;50.958;3.124;2023-05-14T01:45:41;55.30;;;32.15;;
37655;SDS011;23498;50.958;3.124;2023-05-14T01:48:08;58.63;;;31.45;;
37655;SDS011;23498;50.958;3.124;2023-05-14T01:50:34;57.40;;;31.42;;
37655;SDS011;23498;50.958;3.124;2023-05-14T01:53:00;66.47;;;33.88;;
37655;SDS011;23498;50.958;3.124;2023-05-14T01:55:26;63.72;;;34.42;;
37655;SDS011;23498;50.958;3.124;2023-05-14T01:57:52;64.70;;;32.35;;
37655;SDS011;23498;50.958;3.124;2023-05-14T02:00:19;64.60;;;33.47;;
37655;SDS011;23498;50.958;3.124;2023-05-14T02:02:45;66.43;;;32.08;;
37655;SDS011;23498;50.958;3.124;2023-05-14T02:05:11;65.40;;;33.08;;
37655;SDS011;23498;50.958;3.124;2023-05-14T02:07:37;69.88;;;34.17;;
37655;SDS011;23498;50.958;3.124;2023-05-14T02:10:04;63.75;;;33.58;;
37655;SDS011;23498;50.958;3.124;2023-05-14T02:12:30;68.03;;;34.72;;
37655;SDS011;23498;50.958;3.124;2023-05-14T02:14:56;63.97;;;33.08;;
37655;SDS011;23498;50.958;3.124;2023-05-14T02:17:23;66.13;;;32.45;;
37655;SDS011;23498;50.958;3.124;2023-05-14T02:19:49;60.45;;;33.08;;
37655;SDS011;23498;50.958;3.124;2023-05-14T02:22:15;62.95;;;33.17;;
37655;SDS011;23498;50.958;3.124;2023-05-14T02:24:41;65.88;;;33.05;;
37655;SDS011;23498;50.958;3.124;2023-05-14T02:27:07;71.03;;;34.20;;
37655;SDS011;23498;50.958;3.124;2023-05-14T02:29:33;63.60;;;33.58;;
37655;SDS011;23498;50.958;3.124;2023-05-14T02:31:59;70.68;;;35.78;;
37655;SDS011;23498;50.958;3.124;2023-05-14T02:34:25;67.85;;;33.75;;
37655;SDS011;23498;50.958;3.124;2023-05-14T02:36:51;73.15;;;36.03;;
37655;SDS011;23498;50.958;3.124;2023-05-14T02:39:17;62.33;;;33.38;;
37655;SDS011;23498;50.958;3.124;2023-05-14T02:41:43;64.50;;;32.50;;
37655;SDS011;23498;50.958;3.124;2023-05-14T02:44:09;62.58;;;33.00;;
37655;SDS011;23498;50.958;3.124;2023-05-14T02:46:35;65.72;;;32.47;;
37655;SDS011;23498;50.958;3.124;2023-05-14T02:49:01;63.58;;;31.90;;
37655;SDS011;23498;50.958;3.124;2023-05-14T02:51:27;62.50;;;31.30;;
37655;SDS011;23498;50.958;3.124;2023-05-14T02:53:53;63.53;;;32.20;;
37655;SDS011;23498;50.958;3.124;2023-05-14T02:56:19;59.83;;;30.52;;
37655;SDS011;23498;50.958;3.124;2023-05-14T02:58:46;53.90;;;29.70;;
37655;SDS011;23498;50.958;3.124;2023-05-14T03:01:12;58.83;;;30.60;;
37655;SDS011;23498;50.958;3.124;2023-05-14T03:03:38;56.13;;;29.83;;
37655;SDS011;23498;50.958;3.124;2023-05-14T03:06:05;57.40;;;29.92;;
37655;SDS011;23498;50.958;3.124;2023-05-14T03:08:31;57.30;;;29.40;;
37655;SDS011;23498;50.958;3.124;2023-05-14T03:10:57;62.10;;;31.42;;
37655;SDS011;23498;50.958;3.124;2023-05-14T03:13:23;57.72;;;29.83;;
37655;SDS011;23498;50.958;3.124;2023-05-14T03:15:49;52.72;;;28.70;;
37655;SDS011;23498;50.958;3.124;2023-05-14T03:18:18;52.95;;;29.27;;
37655;SDS011;23498;50.958;3.124;2023-05-14T03:20:44;55.60;;;30.27;;
37655;SDS011;23498;50.958;3.124;2023-05-14T03:23:11;54.20;;;30.50;;
37655;SDS011;23498;50.958;3.124;2023-05-14T03:25:37;55.75;;;29.55;;
37655;SDS011;23498;50.958;3.124;2023-05-14T03:28:03;50.97;;;28.73;;
37655;SDS011;23498;50.958;3.124;2023-05-14T03:30:29;54.45;;;29.83;;
37655;SDS011;23498;50.958;3.124;2023-05-14T03:32:55;59.92;;;30.90;;
37655;SDS011;23498;50.958;3.124;2023-05-14T03:35:21;52.70;;;28.85;;
37655;SDS011;23498;50.958;3.124;2023-05-14T03:37:47;51.65;;;29.88;;
37655;SDS011;23498;50.958;3.124;2023-05-14T03:40:13;53.78;;;28.10;;
37655;SDS011;23498;50.958;3.124;2023-05-14T03:42:39;56.78;;;30.08;;
37655;SDS011;23498;50.958;3.124;2023-05-14T03:45:06;54.00;;;28.85;;
37655;SDS011;23498;50.958;3.124;2023-05-14T03:47:32;60.47;;;29.60;;
37655;SDS011;23498;50.958;3.124;2023-05-14T03:49:58;57.63;;;29.38;;
37655;SDS011;23498;50.958;3.124;2023-05-14T03:52:24;58.13;;;29.75;;
37655;SDS011;23498;50.958;3.124;2023-05-14T03:54:50;65.45;;;31.50;;
37655;SDS011;23498;50.958;3.124;2023-05-14T03:57:16;55.63;;;27.83;;
37655;SDS011;23498;50.958;3.124;2023-05-14T03:59:42;54.63;;;29.55;;
37655;SDS011;23498;50.958;3.124;2023-05-14T04:02:08;55.15;;;29.23;;
37655;SDS011;23498;50.958;3.124;2023-05-14T04:04:34;63.55;;;31.42;;
37655;SDS011;23498;50.958;3.124;2023-05-14T04:07:00;62.83;;;31.13;;
37655;SDS011;23498;50.958;3.124;2023-05-14T04:09:26;56.03;;;30.55;;
37655;SDS011;23498;50.958;3.124;2023-05-14T04:11:52;59.53;;;32.53;;
37655;SDS011;23498;50.958;3.124;2023-05-14T04:14:18;61.67;;;32.72;;
37655;SDS011;23498;50.958;3.124;2023-05-14T04:16:44;66.50;;;33.63;;
37655;SDS011;23498;50.958;3.124;2023-05-14T04:19:10;60.50;;;33.28;;
37655;SDS011;23498;50.958;3.124;2023-05-14T04:21:36;67.10;;;34.13;;
37655;SDS011;23498;50.958;3.124;2023-05-14T04:24:02;68.28;;;33.85;;
37655;SDS011;23498;50.958;3.124;2023-05-14T04:26:29;67.53;;;32.70;;
37655;SDS011;23498;50.958;3.124;2023-05-14T04:28:55;62.70;;;29.95;;
37655;SDS011;23498;50.958;3.124;2023-05-14T04:31:21;61.67;;;31.80;;
37655;SDS011;23498;50.958;3.124;2023-05-14T04:33:47;64.40;;;32.40;;
37655;SDS011;23498;50.958;3.124;2023-05-14T04:36:13;57.53;;;30.90;;
37655;SDS011;23498;50.958;3.124;2023-05-14T04:38:40;62.53;;;31.73;;
37655;SDS011;23498;50.958;3.124;2023-05-14T04:41:06;59.58;;;30.55;;
37655;SDS011;23498;50.958;3.124;2023-05-14T04:43:32;60.28;;;30.38;;
37655;SDS011;23498;50.958;3.124;2023-05-14T04:45:58;54.38;;;28.40;;
37655;SDS011;23498;50.958;3.124;2023-05-14T04:48:24;51.13;;;26.15;;
37655;SDS011;23498;50.958;3.124;2023-05-14T04:50:50;51.25;;;28.10;;
37655;SDS011;23498;50.958;3.124;2023-05-14T04:53:17;50.38;;;27.65;;
37655;SDS011;23498;50.958;3.124;2023-05-14T04:55:43;54.13;;;27.73;;
37655;SDS011;23498;50.958;3.124;2023-05-14T04:58:09;52.67;;;28.13;;
37655;SDS011;23498;50.958;3.124;2023-05-14T05:00:35;49.83;;;27.08;;
37655;SDS011;23498;50.958;3.124;2023-05-14T05:03:01;60.17;;;28.23;;
37655;SDS011;23498;50.958;3.124;2023-05-14T05:05:27;50.05;;;27.35;;
37655;SDS011;23498;50.958;3.124;2023-05-14T05:07:53;54.63;;;29.40;;
37655;SDS011;23498;50.958;3.124;2023-05-14T05:10:20;49.10;;;28.48;;
37655;SDS011;23498;50.958;3.124;2023-05-14T05:12:46;57.28;;;30.35;;
37655;SDS011;23498;50.958;3.124;2023-05-14T05:15:12;57.45;;;29.23;;
37655;SDS011;23498;50.958;3.124;2023-05-14T05:17:38;53.78;;;29.23;;
37655;SDS011;23498;50.958;3.124;2023-05-14T05:20:04;50.17;;;27.92;;
37655;SDS011;23498;50.958;3.124;2023-05-14T05:22:33;49.33;;;28.02;;
37655;SDS011;23498;50.958;3.124;2023-05-14T05:25:00;52.88;;;29.27;;
37655;SDS011;23498;50.958;3.124;2023-05-14T05:27:29;47.03;;;28.00;;
37655;SDS011;23498;50.958;3.124;2023-05-14T05:29:55;57.45;;;29.63;;
37655;SDS011;23498;50.958;3.124;2023-05-14T05:32:21;47.40;;;28.90;;
37655;SDS011;23498;50.958;3.124;2023-05-14T05:34:48;49.00;;;28.95;;
37655;SDS011;23498;50.958;3.124;2023-05-14T05:37:15;52.92;;;29.00;;
37655;SDS011;23498;50.958;3.124;2023-05-14T05:39:41;53.17;;;29.52;;
37655;SDS011;23498;50.958;3.124;2023-05-14T05:42:07;51.75;;;29.13;;
37655;SDS011;23498;50.958;3.124;2023-05-14T05:44:34;50.20;;;27.52;;
37655;SDS011;23498;50.958;3.124;2023-05-14T05:47:00;50.70;;;29.55;;
37655;SDS011;23498;50.958;3.124;2023-05-14T05:49:26;50.88;;;27.73;;
37655;SDS011;23498;50.958;3.124;2023-05-14T05:51:52;47.72;;;27.52;;
37655;SDS011;23498;50.958;3.124;2023-05-14T05:54:18;48.17;;;28.33;;
37655;SDS011;23498;50.958;3.124;2023-05-14T05:56:44;45.47;;;26.60;;
37655;SDS011;23498;50.958;3.124;2023-05-14T05:59:10;48.38;;;26.33;;
37655;SDS011;23498;50.958;3.124;2023-05-14T06:01:36;45.33;;;26.30;;
37655;SDS011;23498;50.958;3.124;2023-05-14T06:04:04;46.55;;;27.33;;
37655;SDS011;23498;50.958;3.124;2023-05-14T06:06:30;48.53;;;26.48;;
37655;SDS011;23498;50.958;3.124;2023-05-14T06:08:57;47.20;;;26.77;;
37655;SDS011;23498;50.958;3.124;2023-05-14T06:11:23;48.28;;;26.15;;
37655;SDS011;23498;50.958;3.124;2023-05-14T06:13:49;44.42;;;26.73;;
37655;SDS011;23498;50.958;3.124;2023-05-14T06:16:15;52.35;;;29.80;;
37655;SDS011;23498;50.958;3.124;2023-05-14T06:18:41;50.10;;;28.35;;
37655;SDS011;23498;50.958;3.124;2023-05-14T06:21:07;46.72;;;28.55;;
37655;SDS011;23498;50.958;3.124;2023-05-14T06:23:33;52.13;;;29.08;;
37655;SDS011;23498;50.958;3.124;2023-05-14T06:25:59;55.30;;;29.05;;
37655;SDS011;23498;50.958;3.124;2023-05-14T06:28:25;53.83;;;30.77;;
37655;SDS011;23498;50.958;3.124;2023-05-14T06:30:51;50.13;;;28.88;;
37655;SDS011;23498;50.958;3.124;2023-05-14T06:33:20;43.53;;;28.17;;
37655;SDS011;23498;50.958;3.124;2023-05-14T06:35:53;47.80;;;27.08;;
37655;SDS011;23498;50.958;3.124;2023-05-14T06:38:19;48.78;;;27.85;;
37655;SDS011;23498;50.958;3.124;2023-05-14T06:40:45;51.85;;;28.42;;
37655;SDS011;23498;50.958;3.124;2023-05-14T06:43:11;48.25;;;27.48;;
37655;SDS011;23498;50.958;3.124;2023-05-14T06:45:37;45.95;;;27.38;;
37655;SDS011;23498;50.958;3.124;2023-05-14T06:48:03;47.63;;;26.75;;
37655;SDS011;23498;50.958;3.124;2023-05-14T06:50:29;48.63;;;27.65;;
37655;SDS011;23498;50.958;3.124;2023-05-14T06:52:55;47.28;;;27.58;;
37655;SDS011;23498;50.958;3.124;2023-05-14T06:55:21;50.05;;;27.90;;
37655;SDS011;23498;50.958;3.124;2023-05-14T06:57:48;47.45;;;26.85;;
37655;SDS011;23498;50.958;3.124;2023-05-14T07:00:14;46.15;;;28.45;;
37655;SDS011;23498;50.958;3.124;2023-05-14T07:02:40;45.25;;;26.70;;
37655;SDS011;23498;50.958;3.124;2023-05-14T07:05:07;39.92;;;24.63;;
37655;SDS011;23498;50.958;3.124;2023-05-14T07:07:33;42.00;;;24.65;;
37655;SDS011;23498;50.958;3.124;2023-05-14T07:09:59;39.92;;;24.27;;
37655;SDS011;23498;50.958;3.124;2023-05-14T07:12:25;36.80;;;22.95;;
37655;SDS011;23498;50.958;3.124;2023-05-14T07:14:51;38.85;;;22.90;;
37655;SDS011;23498;50.958;3.124;2023-05-14T07:17:17;36.83;;;23.35;;
37655;SDS011;23498;50.958;3.124;2023-05-14T07:19:43;39.42;;;22.85;;
37655;SDS011;23498;50.958;3.124;2023-05-14T07:22:09;34.10;;;22.17;;
37655;SDS011;23498;50.958;3.124;2023-05-14T07:24:35;43.83;;;24.10;;
37655;SDS011;23498;50.958;3.124;2023-05-14T07:27:01;41.08;;;24.98;;
37655;SDS011;23498;50.958;3.124;2023-05-14T07:29:27;38.72;;;23.70;;
37655;SDS011;23498;50.958;3.124;2023-05-14T07:31:54;38.33;;;24.73;;
37655;SDS011;23498;50.958;3.124;2023-05-14T07:34:20;38.90;;;23.77;;
37655;SDS011;23498;50.958;3.124;2023-05-14T07:36:46;39.30;;;24.38;;
37655;SDS011;23498;50.958;3.124;2023-05-14T07:39:12;41.28;;;24.02;;
37655;SDS011;23498;50.958;3.124;2023-05-14T07:41:38;43.88;;;23.55;;
37655;SDS011;23498;50.958;3.124;2023-05-14T07:44:04;43.72;;;24.05;;
37655;SDS011;23498;50.958;3.124;2023-05-14T07:46:30;42.08;;;23.77;;
37655;SDS011;23498;50.958;3.124;2023-05-14T07:48:56;41.50;;;23.95;;
37655;SDS011;23498;50.958;3.124;2023-05-14T07:51:22;38.45;;;24.25;;
37655;SDS011;23498;50.958;3.124;2023-05-14T07:53:48;33.50;;;22.00;;
37655;SDS011;23498;50.958;3.124;2023-05-14T07:56:14;34.95;;;22.13;;
37655;SDS011;23498;50.958;3.124;2023-05-14T07:58:40;34.42;;;21.48;;
37655;SDS011;23498;50.958;3.124;2023-05-14T08:01:06;39.13;;;22.65;;
37655;SDS011;23498;50.958;3.124;2023-05-14T08:03:33;35.92;;;23.48;;
37655;SDS011;23498;50.958;3.124;2023-05-14T08:05:59;35.38;;;21.67;;
37655;SDS011;23498;50.958;3.124;2023-05-14T08:08:25;33.15;;;21.63;;
37655;SDS011;23498;50.958;3.124;2023-05-14T08:10:51;33.65;;;20.83;;
37655;SDS011;23498;50.958;3.124;2023-05-14T08:13:17;37.28;;;21.77;;
37655;SDS011;23498;50.958;3.124;2023-05-14T08:15:43;37.53;;;21.48;;
37655;SDS011;23498;50.958;3.124;2023-05-14T08:18:09;30.52;;;19.27;;
37655;SDS011;23498;50.958;3.124;2023-05-14T08:20:35;31.33;;;20.27;;
37655;SDS011;23498;50.958;3.124;2023-05-14T08:23:02;31.42;;;20.40;;
37655;SDS011;23498;50.958;3.124;2023-05-14T08:25:28;32.50;;;19.48;;
37655;SDS011;23498;50.958;3.124;2023-05-14T08:27:54;28.15;;;19.13;;
37655;SDS011;23498;50.958;3.124;2023-05-14T08:30:20;32.67;;;20.35;;
37655;SDS011;23498;50.958;3.124;2023-05-14T08:32:46;28.98;;;18.10;;
37655;SDS011;23498;50.958;3.124;2023-05-14T08:35:12;26.45;;;17.85;;
37655;SDS011;23498;50.958;3.124;2023-05-14T08:37:38;30.90;;;20.60;;
37655;SDS011;23498;50.958;3.124;2023-05-14T08:40:04;32.22;;;19.05;;
37655;SDS011;23498;50.958;3.124;2023-05-14T08:42:32;25.92;;;18.50;;
37655;SDS011;23498;50.958;3.124;2023-05-14T08:45:00;27.20;;;19.42;;
37655;SDS011;23498;50.958;3.124;2023-05-14T08:47:26;27.98;;;19.20;;
37655;SDS011;23498;50.958;3.124;2023-05-14T08:49:58;31.35;;;19.02;;
37655;SDS011;23498;50.958;3.124;2023-05-14T08:52:26;28.55;;;18.48;;
37655;SDS011;23498;50.958;3.124;2023-05-14T08:54:52;25.90;;;17.15;;
37655;SDS011;23498;50.958;3.124;2023-05-14T08:57:19;26.73;;;18.45;;
37655;SDS011;23498;50.958;3.124;2023-05-14T08:59:48;30.67;;;19.77;;
37655;SDS011;23498;50.958;3.124;2023-05-14T09:02:14;27.40;;;19.20;;
37655;SDS011;23498;50.958;3.124;2023-05-14T09:04:41;26.08;;;17.65;;
37655;SDS011;23498;50.958;3.124;2023-05-14T09:07:07;25.70;;;17.70;;
37655;SDS011;23498;50.958;3.124;2023-05-14T09:09:33;28.70;;;17.73;;
37655;SDS011;23498;50.958;3.124;2023-05-14T09:12:00;25.73;;;17.15;;
37655;SDS011;23498;50.958;3.124;2023-05-14T09:14:26;23.95;;;16.63;;
37655;SDS011;23498;50.958;3.124;2023-05-14T09:16:52;24.92;;;17.05;;
37655;SDS011;23498;50.958;3.124;2023-05-14T09:19:18;26.15;;;16.75;;
37655;SDS011;23498;50.958;3.124;2023-05-14T09:21:45;29.95;;;18.15;;
37655;SDS011;23498;50.958;3.124;2023-05-14T09:24:22;24.92;;;16.90;;
37655;SDS011;23498;50.958;3.124;2023-05-14T09:26:52;28.60;;;17.10;;
37655;SDS011;23498;50.958;3.124;2023-05-14T09:29:18;23.65;;;17.23;;
37655;SDS011;23498;50.958;3.124;2023-05-14T09:31:44;26.33;;;17.45;;
37655;SDS011;23498;50.958;3.124;2023-05-14T09:34:11;28.77;;;19.23;;
37655;SDS011;23498;50.958;3.124;2023-05-14T09:36:37;31.73;;;20.65;;
37655;SDS011;23498;50.958;3.124;2023-05-14T09:39:03;25.95;;;18.73;;
37655;SDS011;23498;50.958;3.124;2023-05-14T09:41:29;28.02;;;19.13;;
37655;SDS011;23498;50.958;3.124;2023-05-14T09:43:56;27.77;;;19.60;;
37655;SDS011;23498;50.958;3.124;2023-05-14T09:46:22;32.58;;;20.17;;
37655;SDS011;23498;50.958;3.124;2023-05-14T09:48:51;29.23;;;18.52;;
37655;SDS011;23498;50.958;3.124;2023-05-14T09:51:19;29.77;;;19.90;;
37655;SDS011;23498;50.958;3.124;2023-05-14T09:53:45;31.90;;;20.33;;
37655;SDS011;23498;50.958;3.124;2023-05-14T09:56:11;29.40;;;21.75;;
37655;SDS011;23498;50.958;3.124;2023-05-14T09:58:37;29.83;;;20.40;;
37655;SDS011;23498;50.958;3.124;2023-05-14T10:01:04;29.67;;;21.30;;
37655;SDS011;23498;50.958;3.124;2023-05-14T10:03:30;31.23;;;20.90;;
37655;SDS011;23498;50.958;3.124;2023-05-14T10:05:57;28.70;;;19.83;;
37655;SDS011;23498;50.958;3.124;2023-05-14T10:08:43;31.63;;;20.55;;
37655;SDS011;23498;50.958;3.124;2023-05-14T10:11:19;32.10;;;20.75;;
37655;SDS011;23498;50.958;3.124;2023-05-14T10:13:52;28.00;;;19.88;;
37655;SDS011;23498;50.958;3.124;2023-05-14T10:18:48;30.83;;;20.15;;
37655;SDS011;23498;50.958;3.124;2023-05-14T10:21:16;32.05;;;20.02;;
37655;SDS011;23498;50.958;3.124;2023-05-14T10:23:43;31.40;;;19.98;;
37655;SDS011;23498;50.958;3.124;2023-05-14T10:26:09;27.88;;;18.92;;
37655;SDS011;23498;50.958;3.124;2023-05-14T10:28:35;29.15;;;19.15;;
37655;SDS011;23498;50.958;3.124;2023-05-14T10:31:01;29.73;;;18.98;;
37655;SDS011;23498;50.958;3.124;2023-05-14T10:33:27;27.58;;;19.27;;
37655;SDS011;23498;50.958;3.124;2023-05-14T10:35:58;27.65;;;18.77;;
37655;SDS011;23498;50.958;3.124;2023-05-14T10:38:25;24.95;;;18.48;;
37655;SDS011;23498;50.958;3.124;2023-05-14T10:40:59;24.65;;;17.38;;
37655;SDS011;23498;50.958;3.124;2023-05-14T10:43:25;24.90;;;17.60;;
37655;SDS011;23498;50.958;3.124;2023-05-14T10:45:53;27.88;;;17.90;;
37655;SDS011;23498;50.958;3.124;2023-05-14T10:48:19;26.20;;;18.45;;
37655;SDS011;23498;50.958;3.124;2023-05-14T10:50:46;25.92;;;16.88;;
37655;SDS011;23498;50.958;3.124;2023-05-14T10:53:13;29.80;;;18.30;;
37655;SDS011;23498;50.958;3.124;2023-05-14T10:55:41;27.00;;;18.05;;
37655;SDS011;23498;50.958;3.124;2023-05-14T10:58:07;30.27;;;19.67;;
37655;SDS011;23498;50.958;3.124;2023-05-14T11:00:33;26.52;;;18.20;;
37655;SDS011;23498;50.958;3.124;2023-05-14T11:03:02;30.45;;;19.10;;
37655;SDS011;23498;50.958;3.124;2023-05-14T11:05:28;26.27;;;18.05;;
37655;SDS011;23498;50.958;3.124;2023-05-14T11:07:55;27.50;;;18.23;;
37655;SDS011;23498;50.958;3.124;2023-05-14T11:10:22;26.20;;;18.05;;
37655;SDS011;23498;50.958;3.124;2023-05-14T11:15:20;24.10;;;15.43;;
37655;SDS011;23498;50.958;3.124;2023-05-14T11:17:46;22.70;;;15.98;;
37655;SDS011;23498;50.958;3.124;2023-05-14T11:20:13;24.00;;;16.05;;
37655;SDS011;23498;50.958;3.124;2023-05-14T11:22:41;21.58;;;14.40;;
37655;SDS011;23498;50.958;3.124;2023-05-14T11:25:07;21.73;;;15.35;;
37655;SDS011;23498;50.958;3.124;2023-05-14T11:27:34;21.48;;;15.77;;
37655;SDS011;23498;50.958;3.124;2023-05-14T11:30:00;22.60;;;15.77;;
37655;SDS011;23498;50.958;3.124;2023-05-14T11:32:27;28.00;;;16.33;;
37655;SDS011;23498;50.958;3.124;2023-05-14T11:34:53;18.40;;;12.95;;
37655;SDS011;23498;50.958;3.124;2023-05-14T11:37:19;21.17;;;14.07;;
37655;SDS011;23498;50.958;3.124;2023-05-14T11:39:46;19.63;;;12.85;;
37655;SDS011;23498;50.958;3.124;2023-05-14T11:42:12;19.63;;;13.98;;
37655;SDS011;23498;50.958;3.124;2023-05-14T11:44:41;20.02;;;14.85;;
37655;SDS011;23498;50.958;3.124;2023-05-14T11:47:08;18.65;;;13.38;;
37655;SDS011;23498;50.958;3.124;2023-05-14T11:49:34;20.17;;;14.82;;
37655;SDS011;23498;50.958;3.124;2023-05-14T11:52:02;17.02;;;11.60;;
37655;SDS011;23498;50.958;3.124;2023-05-14T11:54:29;11.57;;;9.35;;
37655;SDS011;23498;50.958;3.124;2023-05-14T11:56:55;13.27;;;10.52;;
37655;SDS011;23498;50.958;3.124;2023-05-14T11:59:26;15.20;;;10.35;;
37655;SDS011;23498;50.958;3.124;2023-05-14T12:01:52;14.65;;;11.25;;
37655;SDS011;23498;50.958;3.124;2023-05-14T12:04:19;15.90;;;11.23;;
37655;SDS011;23498;50.958;3.124;2023-05-14T12:06:50;15.25;;;11.05;;
37655;SDS011;23498;50.958;3.124;2023-05-14T12:09:16;15.68;;;10.90;;
37655;SDS011;23498;50.958;3.124;2023-05-14T12:11:43;17.13;;;12.30;;
37655;SDS011;23498;50.958;3.124;2023-05-14T12:14:13;16.70;;;12.25;;
37655;SDS011;23498;50.958;3.124;2023-05-14T12:16:40;14.63;;;11.02;;
37655;SDS011;23498;50.958;3.124;2023-05-14T12:19:07;14.02;;;10.77;;
37655;SDS011;23498;50.958;3.124;2023-05-14T12:21:34;16.60;;;12.02;;
37655;SDS011;23498;50.958;3.124;2023-05-14T12:24:00;15.73;;;12.70;;
37655;SDS011;23498;50.958;3.124;2023-05-14T12:26:26;16.02;;;12.20;;
37655;SDS011;23498;50.958;3.124;2023-05-14T12:28:59;19.20;;;13.95;;
37655;SDS011;23498;50.958;3.124;2023-05-14T12:31:29;16.42;;;11.63;;
37655;SDS011;23498;50.958;3.124;2023-05-14T12:33:55;17.55;;;12.63;;
37655;SDS011;23498;50.958;3.124;2023-05-14T12:36:21;17.10;;;12.65;;
37655;SDS011;23498;50.958;3.124;2023-05-14T12:38:48;17.70;;;12.68;;
37655;SDS011;23498;50.958;3.124;2023-05-14T12:41:14;15.80;;;12.50;;
37655;SDS011;23498;50.958;3.124;2023-05-14T12:43:41;17.20;;;13.07;;
37655;SDS011;23498;50.958;3.124;2023-05-14T12:46:07;17.40;;;13.35;;
37655;SDS011;23498;50.958;3.124;2023-05-14T12:48:34;16.13;;;12.98;;
37655;SDS011;23498;50.958;3.124;2023-05-14T12:51:00;16.85;;;11.70;;
37655;SDS011;23498;50.958;3.124;2023-05-14T12:53:26;16.75;;;12.45;;
37655;SDS011;23498;50.958;3.124;2023-05-14T12:55:53;16.23;;;12.48;;
37655;SDS011;23498;50.958;3.124;2023-05-14T12:58:19;14.50;;;11.55;;
37655;SDS011;23498;50.958;3.124;2023-05-14T13:00:45;15.30;;;11.57;;
37655;SDS011;23498;50.958;3.124;2023-05-14T13:03:11;17.15;;;12.95;;
37655;SDS011;23498;50.958;3.124;2023-05-14T13:05:37;16.42;;;12.38;;
37655;SDS011;23498;50.958;3.124;2023-05-14T13:08:03;16.85;;;12.43;;
37655;SDS011;23498;50.958;3.124;2023-05-14T13:10:29;17.48;;;13.02;;
37655;SDS011;23498;50.958;3.124;2023-05-14T13:12:56;18.48;;;13.68;;
37655;SDS011;23498;50.958;3.124;2023-05-14T13:15:22;17.00;;;12.75;;
37655;SDS011;23498;50.958;3.124;2023-05-14T13:17:48;16.17;;;12.07;;
37655;SDS011;23498;50.958;3.124;2023-05-14T13:20:15;16.52;;;12.43;;
37655;SDS011;23498;50.958;3.124;2023-05-14T13:22:42;13.65;;;11.10;;
37655;SDS011;23498;50.958;3.124;2023-05-14T13:25:08;19.52;;;13.18;;
37655;SDS011;23498;50.958;3.124;2023-05-14T13:27:34;15.85;;;11.55;;
37655;SDS011;23498;50.958;3.124;2023-05-14T13:30:01;15.48;;;12.48;;
37655;SDS011;23498;50.958;3.124;2023-05-14T13:32:28;16.38;;;11.90;;
37655;SDS011;23498;50.958;3.124;2023-05-14T13:34:54;16.02;;;12.32;;
37655;SDS011;23498;50.958;3.124;2023-05-14T13:37:20;17.88;;;12.55;;
37655;SDS011;23498;50.958;3.124;2023-05-14T13:39:46;14.80;;;12.20;;
37655;SDS011;23498;50.958;3.124;2023-05-14T13:42:12;18.23;;;11.85;;
37655;SDS011;23498;50.958;3.124;2023-05-14T13:44:38;14.80;;;11.40;;
37655;SDS011;23498;50.958;3.124;2023-05-14T13:47:05;18.42;;;12.93;;
37655;SDS011;23498;50.958;3.124;2023-05-14T13:49:31;14.98;;;11.90;;
37655;SDS011;23498;50.958;3.124;2023-05-14T13:51:57;18.38;;;11.50;;
37655;SDS011;23498;50.958;3.124;2023-05-14T13:54:23;12.82;;;11.45;;
37655;SDS011;23498;50.958;3.124;2023-05-14T13:56:49;16.13;;;11.50;;
37655;SDS011;23498;50.958;3.124;2023-05-14T13:59:16;16.05;;;10.82;;
37655;SDS011;23498;50.958;3.124;2023-05-14T14:01:42;13.90;;;10.68;;
37655;SDS011;23498;50.958;3.124;2023-05-14T14:04:11;16.23;;;11.35;;
37655;SDS011;23498;50.958;3.124;2023-05-14T14:06:40;13.75;;;11.05;;
37655;SDS011;23498;50.958;3.124;2023-05-14T14:09:06;14.68;;;11.20;;
37655;SDS011;23498;50.958;3.124;2023-05-14T14:11:32;15.75;;;11.25;;
37655;SDS011;23498;50.958;3.124;2023-05-14T14:13:58;17.30;;;12.20;;
37655;SDS011;23498;50.958;3.124;2023-05-14T14:16:24;15.20;;;12.10;;
37655;SDS011;23498;50.958;3.124;2023-05-14T14:18:50;15.93;;;12.48;;
37655;SDS011;23498;50.958;3.124;2023-05-14T14:21:15;17.40;;;13.80;;
37655;SDS011;23498;50.958;3.124;2023-05-14T14:23:45;18.63;;;13.30;;
37655;SDS011;23498;50.958;3.124;2023-05-14T14:26:11;19.05;;;13.88;;